sensor_id;sensor_type;location;lat;lon;timestamp;pressure;altitude;pressure_sealevel;temperature;humidity
70411;BME280;57832;46.038;11.398;2022-08-01T00:01:03;96956.97;;;22.59;57.68
70411;BME280;57832;46.038;11.398;2022-08-01T00:03:28;96960.81;;;22.87;56.58
70411;BME280;57832;46.038;11.398;2022-08-01T00:05:54;96961.03;;;23.03;56.04
70411;BME280;57832;46.038;11.398;2022-08-01T00:08:19;96955.81;;;22.68;57.77
70411;BME280;57832;46.038;11.398;2022-08-01T00:10:45;96959.00;;;21.04;64.76
70411;BME280;57832;46.038;11.398;2022-08-01T00:13:10;96962.13;;;21.64;63.49
70411;BME280;57832;46.038;11.398;2022-08-01T00:15:36;96962.81;;;22.52;59.07
70411;BME280;57832;46.038;11.398;2022-08-01T00:18:01;96961.13;;;22.21;60.10
70411;BME280;57832;46.038;11.398;2022-08-01T00:20:27;96961.66;;;22.62;59.25
70411;BME280;57832;46.038;11.398;2022-08-01T00:22:53;96954.78;;;22.61;58.84
70411;BME280;57832;46.038;11.398;2022-08-01T00:25:18;96954.84;;;22.82;58.05
70411;BME280;57832;46.038;11.398;2022-08-01T00:27:44;96963.81;;;22.77;57.87
70411;BME280;57832;46.038;11.398;2022-08-01T00:30:09;96957.94;;;22.54;59.30
70411;BME280;57832;46.038;11.398;2022-08-01T00:32:35;96966.44;;;22.30;60.58
70411;BME280;57832;46.038;11.398;2022-08-01T00:35:01;96966.94;;;20.55;64.03
70411;BME280;57832;46.038;11.398;2022-08-01T00:37:26;96965.25;;;21.57;60.30
70411;BME280;57832;46.038;11.398;2022-08-01T00:40:12;96960.13;;;22.52;57.70
70411;BME280;57832;46.038;11.398;2022-08-01T00:42:37;96967.56;;;22.37;57.70
70411;BME280;57832;46.038;11.398;2022-08-01T00:45:03;96959.75;;;22.71;56.15
70411;BME280;57832;46.038;11.398;2022-08-01T00:47:29;96971.00;;;22.29;58.81
70411;BME280;57832;46.038;11.398;2022-08-01T00:49:55;96972.47;;;22.18;59.75
70411;BME280;57832;46.038;11.398;2022-08-01T00:52:20;96970.56;;;22.18;59.19
70411;BME280;57832;46.038;11.398;2022-08-01T00:54:46;96967.44;;;21.99;58.89
70411;BME280;57832;46.038;11.398;2022-08-01T00:57:12;96964.38;;;22.53;57.57
70411;BME280;57832;46.038;11.398;2022-08-01T00:59:39;96971.81;;;22.21;58.22
70411;BME280;57832;46.038;11.398;2022-08-01T01:02:06;96973.69;;;22.29;57.77
70411;BME280;57832;46.038;11.398;2022-08-01T01:04:31;96961.91;;;22.30;58.22
70411;BME280;57832;46.038;11.398;2022-08-01T01:07:12;96970.38;;;22.41;58.89
70411;BME280;57832;46.038;11.398;2022-08-01T01:09:45;96964.44;;;22.18;59.69
70411;BME280;57832;46.038;11.398;2022-08-01T01:17:57;96966.00;;;22.19;58.42
70411;BME280;57832;46.038;11.398;2022-08-01T01:20:46;96962.91;;;21.99;59.47
70411;BME280;57832;46.038;11.398;2022-08-01T01:31:57;96970.91;;;21.99;59.47
70411;BME280;57832;46.038;11.398;2022-08-01T01:34:23;96975.13;;;21.83;59.37
70411;BME280;57832;46.038;11.398;2022-08-01T01:36:54;96972.66;;;21.95;59.03
70411;BME280;57832;46.038;11.398;2022-08-01T01:39:21;96977.56;;;20.46;65.26
70411;BME280;57832;46.038;11.398;2022-08-01T01:41:51;96978.88;;;20.35;66.51
70411;BME280;57832;46.038;11.398;2022-08-01T01:44:18;96976.66;;;20.91;65.14
70411;BME280;57832;46.038;11.398;2022-08-01T01:46:44;96975.75;;;21.71;60.65
70411;BME280;57832;46.038;11.398;2022-08-01T01:49:11;96976.09;;;21.96;59.71
70411;BME280;57832;46.038;11.398;2022-08-01T01:51:38;96974.22;;;21.70;60.69
70411;BME280;57832;46.038;11.398;2022-08-01T01:54:06;96974.03;;;19.69;68.92
70411;BME280;57832;46.038;11.398;2022-08-01T01:56:34;96973.72;;;21.01;63.58
70411;BME280;57832;46.038;11.398;2022-08-01T01:59:02;96965.72;;;20.93;64.46
70411;BME280;57832;46.038;11.398;2022-08-01T02:01:30;96970.28;;;21.67;60.95
70411;BME280;57832;46.038;11.398;2022-08-01T02:03:57;96968.88;;;21.70;60.90
70411;BME280;57832;46.038;11.398;2022-08-01T02:06:26;96967.88;;;21.48;61.96
70411;BME280;57832;46.038;11.398;2022-08-01T02:08:54;96973.09;;;21.62;60.66
70411;BME280;57832;46.038;11.398;2022-08-01T02:11:21;96977.03;;;21.82;58.95
70411;BME280;57832;46.038;11.398;2022-08-01T02:13:56;96976.25;;;21.56;60.19
70411;BME280;57832;46.038;11.398;2022-08-01T02:16:26;96976.69;;;21.49;60.84
70411;BME280;57832;46.038;11.398;2022-08-01T02:18:52;96972.78;;;21.55;59.78
70411;BME280;57832;46.038;11.398;2022-08-01T02:21:44;96973.41;;;21.87;58.51
70411;BME280;57832;46.038;11.398;2022-08-01T02:24:28;96977.13;;;21.42;60.15
70411;BME280;57832;46.038;11.398;2022-08-01T02:27:00;96973.31;;;21.17;60.97
70411;BME280;57832;46.038;11.398;2022-08-01T02:30:00;96980.22;;;19.64;65.17
70411;BME280;57832;46.038;11.398;2022-08-01T02:32:47;96974.81;;;20.92;61.04
70411;BME280;57832;46.038;11.398;2022-08-01T02:35:27;96977.78;;;21.48;58.81
70411;BME280;57832;46.038;11.398;2022-08-01T02:37:55;96980.09;;;20.83;61.37
70411;BME280;57832;46.038;11.398;2022-08-01T02:40:22;96978.28;;;21.01;61.17
70411;BME280;57832;46.038;11.398;2022-08-01T02:42:50;96977.28;;;21.46;60.19
70411;BME280;57832;46.038;11.398;2022-08-01T02:45:22;96989.13;;;21.62;59.82
70411;BME280;57832;46.038;11.398;2022-08-01T02:47:50;96978.09;;;21.55;59.93
70411;BME280;57832;46.038;11.398;2022-08-01T02:50:17;96979.50;;;21.52;59.95
70411;BME280;57832;46.038;11.398;2022-08-01T02:52:44;96994.06;;;21.29;61.22
70411;BME280;57832;46.038;11.398;2022-08-01T02:55:12;96993.22;;;21.11;61.47
70411;BME280;57832;46.038;11.398;2022-08-01T02:57:39;96985.00;;;21.47;60.41
70411;BME280;57832;46.038;11.398;2022-08-01T03:00:06;96985.63;;;21.53;60.11
70411;BME280;57832;46.038;11.398;2022-08-01T03:02:33;96996.72;;;21.37;60.38
70411;BME280;57832;46.038;11.398;2022-08-01T03:05:00;96991.22;;;21.25;60.83
70411;BME280;57832;46.038;11.398;2022-08-01T03:07:28;96989.81;;;21.36;60.61
70411;BME280;57832;46.038;11.398;2022-08-01T03:09:56;96989.63;;;21.15;61.26
70411;BME280;57832;46.038;11.398;2022-08-01T03:12:26;96980.50;;;20.67;63.99
70411;BME280;57832;46.038;11.398;2022-08-01T03:14:54;96978.25;;;19.84;66.10
70411;BME280;57832;46.038;11.398;2022-08-01T03:17:24;96985.63;;;19.73;66.44
70411;BME280;57832;46.038;11.398;2022-08-01T03:19:52;96980.91;;;20.29;64.36
70411;BME280;57832;46.038;11.398;2022-08-01T03:22:21;96979.91;;;20.70;62.64
70411;BME280;57832;46.038;11.398;2022-08-01T03:24:51;96981.63;;;20.75;62.11
70411;BME280;57832;46.038;11.398;2022-08-01T03:27:19;96981.88;;;20.96;61.72
70411;BME280;57832;46.038;11.398;2022-08-01T03:29:46;96973.22;;;20.59;63.03
70411;BME280;57832;46.038;11.398;2022-08-01T03:32:13;96985.88;;;20.45;63.40
70411;BME280;57832;46.038;11.398;2022-08-01T03:34:40;96984.06;;;19.86;65.51
70411;BME280;57832;46.038;11.398;2022-08-01T03:37:15;96981.31;;;20.23;64.01
70411;BME280;57832;46.038;11.398;2022-08-01T03:40:02;96980.22;;;20.46;63.13
70411;BME280;57832;46.038;11.398;2022-08-01T03:42:35;96985.56;;;20.55;62.69
70411;BME280;57832;46.038;11.398;2022-08-01T03:45:07;96982.75;;;20.51;63.00
70411;BME280;57832;46.038;11.398;2022-08-01T03:47:38;96986.91;;;20.66;62.78
70411;BME280;57832;46.038;11.398;2022-08-01T03:50:24;96987.44;;;20.77;62.33
70411;BME280;57832;46.038;11.398;2022-08-01T03:53:35;96979.13;;;20.47;63.14
70411;BME280;57832;46.038;11.398;2022-08-01T03:56:28;96985.69;;;20.50;63.21
70411;BME280;57832;46.038;11.398;2022-08-01T03:59:27;96985.34;;;20.97;62.05
70411;BME280;57832;46.038;11.398;2022-08-01T04:02:18;96985.09;;;20.76;62.31
70411;BME280;57832;46.038;11.398;2022-08-01T04:05:12;96987.69;;;21.07;60.98
70411;BME280;57832;46.038;11.398;2022-08-01T04:08:02;96988.31;;;20.95;61.42
70411;BME280;57832;46.038;11.398;2022-08-01T04:10:57;96986.63;;;20.45;63.23
70411;BME280;57832;46.038;11.398;2022-08-01T04:13:48;96993.53;;;20.69;63.08
70411;BME280;57832;46.038;11.398;2022-08-01T04:16:36;96987.66;;;20.90;61.64
70411;BME280;57832;46.038;11.398;2022-08-01T04:19:28;96988.91;;;20.92;61.43
70411;BME280;57832;46.038;11.398;2022-08-01T04:22:24;96998.28;;;20.81;62.04
70411;BME280;57832;46.038;11.398;2022-08-01T04:25:00;96999.63;;;21.01;61.10
70411;BME280;57832;46.038;11.398;2022-08-01T04:27:32;97001.41;;;21.23;60.50
70411;BME280;57832;46.038;11.398;2022-08-01T04:30:01;97008.59;;;21.14;60.71
70411;BME280;57832;46.038;11.398;2022-08-01T04:32:34;97013.34;;;20.85;61.40
70411;BME280;57832;46.038;11.398;2022-08-01T04:35:06;97016.78;;;20.77;62.06
70411;BME280;57832;46.038;11.398;2022-08-01T04:37:33;97018.03;;;20.57;63.19
70411;BME280;57832;46.038;11.398;2022-08-01T04:40:03;97017.41;;;20.83;62.55
70411;BME280;57832;46.038;11.398;2022-08-01T05:00:14;97013.72;;;21.01;61.83
70411;BME280;57832;46.038;11.398;2022-08-01T05:14:08;97010.66;;;20.77;64.04
70411;BME280;57832;46.038;11.398;2022-08-01T05:17:44;96994.44;;;21.53;61.29
70411;BME280;57832;46.038;11.398;2022-08-01T05:20:57;97002.91;;;21.64;60.56
70411;BME280;57832;46.038;11.398;2022-08-01T05:28:21;97001.16;;;20.39;64.15
70411;BME280;57832;46.038;11.398;2022-08-01T05:35:24;97002.63;;;21.57;60.91
70411;BME280;57832;46.038;11.398;2022-08-01T06:03:37;97000.97;;;23.09;56.52
70411;BME280;57832;46.038;11.398;2022-08-01T06:07:15;97003.41;;;23.31;57.50
70411;BME280;57832;46.038;11.398;2022-08-01T06:11:10;96994.75;;;23.26;58.08
70411;BME280;57832;46.038;11.398;2022-08-01T06:15:05;96995.34;;;23.01;56.60
70411;BME280;57832;46.038;11.398;2022-08-01T06:26:28;96991.47;;;23.29;55.41
70411;BME280;57832;46.038;11.398;2022-08-01T06:51:00;96976.78;;;32.23;33.61
70411;BME280;57832;46.038;11.398;2022-08-01T06:53:48;96977.84;;;32.00;33.37
70411;BME280;57832;46.038;11.398;2022-08-01T07:07:27;96946.66;;;35.78;25.55
70411;BME280;57832;46.038;11.398;2022-08-01T07:18:01;96946.53;;;34.18;27.18
70411;BME280;57832;46.038;11.398;2022-08-01T07:21:43;96939.34;;;34.49;25.22
70411;BME280;57832;46.038;11.398;2022-08-01T07:28:44;96928.84;;;38.99;21.43
70411;BME280;57832;46.038;11.398;2022-08-01T07:32:09;96918.28;;;38.35;22.31
70411;BME280;57832;46.038;11.398;2022-08-01T07:45:59;96919.56;;;36.73;24.04
70411;BME280;57832;46.038;11.398;2022-08-01T07:53:34;96906.28;;;38.61;21.17
70411;BME280;57832;46.038;11.398;2022-08-01T07:57:09;96900.19;;;40.49;19.58
70411;BME280;57832;46.038;11.398;2022-08-01T08:04:20;96894.19;;;41.11;17.69
70411;BME280;57832;46.038;11.398;2022-08-01T08:07:53;96888.00;;;40.85;18.94
70411;BME280;57832;46.038;11.398;2022-08-01T09:47:37;96800.44;;;38.68;19.19
70411;BME280;57832;46.038;11.398;2022-08-01T09:57:34;96789.13;;;39.24;19.89
70411;BME280;57832;46.038;11.398;2022-08-01T10:26:03;96749.34;;;40.06;18.96
70411;BME280;57832;46.038;11.398;2022-08-01T10:29:39;96742.94;;;42.39;17.95
70411;BME280;57832;46.038;11.398;2022-08-01T10:36:26;96728.06;;;41.81;16.99
70411;BME280;57832;46.038;11.398;2022-08-01T10:43:35;96731.47;;;42.40;16.73
70411;BME280;57832;46.038;11.398;2022-08-01T11:07:55;96703.81;;;40.53;17.84
70411;BME280;57832;46.038;11.398;2022-08-01T11:11:30;96697.59;;;40.05;18.26
70411;BME280;57832;46.038;11.398;2022-08-01T11:25:07;96669.25;;;41.47;14.98
70411;BME280;57832;46.038;11.398;2022-08-01T11:35:30;96661.41;;;39.10;16.94
70411;BME280;57832;46.038;11.398;2022-08-01T12:06:54;96621.81;;;39.85;16.63
70411;BME280;57832;46.038;11.398;2022-08-01T12:20:45;96601.13;;;38.72;17.25
70411;BME280;57832;46.038;11.398;2022-08-01T12:23:22;96601.78;;;39.02;16.13
70411;BME280;57832;46.038;11.398;2022-08-01T12:26:10;96590.59;;;39.70;16.22
70411;BME280;57832;46.038;11.398;2022-08-01T12:28:59;96592.41;;;40.61;16.48
70411;BME280;57832;46.038;11.398;2022-08-01T12:31:52;96592.09;;;40.59;18.45
70411;BME280;57832;46.038;11.398;2022-08-01T12:34:45;96592.22;;;41.56;16.64
70411;BME280;57832;46.038;11.398;2022-08-01T12:37:24;96588.63;;;38.71;17.77
70411;BME280;57832;46.038;11.398;2022-08-01T12:43:04;96586.97;;;39.60;17.08
70411;BME280;57832;46.038;11.398;2022-08-01T12:46:03;96580.38;;;40.37;15.72
70411;BME280;57832;46.038;11.398;2022-08-01T12:49:08;96569.25;;;39.39;17.25
70411;BME280;57832;46.038;11.398;2022-08-01T12:52:03;96572.53;;;40.04;16.50
70411;BME280;57832;46.038;11.398;2022-08-01T12:55:03;96573.03;;;39.89;16.39
70411;BME280;57832;46.038;11.398;2022-08-01T12:57:30;96571.16;;;39.29;17.36
70411;BME280;57832;46.038;11.398;2022-08-01T13:00:11;96579.97;;;38.85;19.21
70411;BME280;57832;46.038;11.398;2022-08-01T13:02:38;96567.00;;;39.72;17.41
70411;BME280;57832;46.038;11.398;2022-08-01T13:05:04;96568.38;;;39.99;17.18
70411;BME280;57832;46.038;11.398;2022-08-01T13:07:39;96574.25;;;40.64;16.39
70411;BME280;57832;46.038;11.398;2022-08-01T13:10:06;96562.69;;;40.38;16.18
70411;BME280;57832;46.038;11.398;2022-08-01T13:12:31;96560.09;;;38.68;18.59
70411;BME280;57832;46.038;11.398;2022-08-01T13:14:57;96554.50;;;37.61;17.61
70411;BME280;57832;46.038;11.398;2022-08-01T13:17:33;96551.00;;;40.24;18.21
70411;BME280;57832;46.038;11.398;2022-08-01T13:20:01;96552.16;;;38.74;17.85
70411;BME280;57832;46.038;11.398;2022-08-01T13:22:36;96551.41;;;40.13;16.79
70411;BME280;57832;46.038;11.398;2022-08-01T13:25:14;96546.59;;;40.58;15.14
70411;BME280;57832;46.038;11.398;2022-08-01T13:27:40;96544.38;;;40.44;16.43
70411;BME280;57832;46.038;11.398;2022-08-01T13:30:16;96546.75;;;39.79;16.52
70411;BME280;57832;46.038;11.398;2022-08-01T13:32:43;96546.59;;;40.27;16.59
70411;BME280;57832;46.038;11.398;2022-08-01T13:35:11;96530.19;;;39.92;17.18
70411;BME280;57832;46.038;11.398;2022-08-01T13:37:39;96534.97;;;40.23;14.00
70411;BME280;57832;46.038;11.398;2022-08-01T13:40:06;96538.06;;;39.23;15.79
70411;BME280;57832;46.038;11.398;2022-08-01T13:42:47;96531.78;;;40.02;16.63
70411;BME280;57832;46.038;11.398;2022-08-01T13:45:44;96535.41;;;39.07;16.56
70411;BME280;57832;46.038;11.398;2022-08-01T13:48:33;96525.25;;;39.42;16.01
70411;BME280;57832;46.038;11.398;2022-08-01T13:51:32;96523.25;;;39.78;17.00
70411;BME280;57832;46.038;11.398;2022-08-01T13:54:29;96522.78;;;39.35;16.90
70411;BME280;57832;46.038;11.398;2022-08-01T13:57:21;96521.31;;;38.44;16.96
70411;BME280;57832;46.038;11.398;2022-08-01T13:59:58;96527.25;;;38.81;16.38
70411;BME280;57832;46.038;11.398;2022-08-01T14:02:26;96518.22;;;37.28;18.91
70411;BME280;57832;46.038;11.398;2022-08-01T14:04:53;96525.72;;;38.54;17.39
70411;BME280;57832;46.038;11.398;2022-08-01T14:07:20;96524.59;;;38.90;16.59
70411;BME280;57832;46.038;11.398;2022-08-01T14:09:45;96520.47;;;38.73;18.42
70411;BME280;57832;46.038;11.398;2022-08-01T14:12:11;96530.69;;;37.75;19.07
70411;BME280;57832;46.038;11.398;2022-08-01T14:14:36;96522.59;;;37.42;18.92
70411;BME280;57832;46.038;11.398;2022-08-01T14:17:03;96533.75;;;37.77;19.67
70411;BME280;57832;46.038;11.398;2022-08-01T14:19:29;96533.84;;;37.90;19.68
70411;BME280;57832;46.038;11.398;2022-08-01T14:21:56;96525.50;;;37.35;21.02
70411;BME280;57832;46.038;11.398;2022-08-01T14:24:23;96537.53;;;37.54;20.56
70411;BME280;57832;46.038;11.398;2022-08-01T14:26:49;96533.19;;;37.07;22.02
70411;BME280;57832;46.038;11.398;2022-08-01T14:29:14;96532.41;;;36.73;20.59
70411;BME280;57832;46.038;11.398;2022-08-01T14:31:40;96535.75;;;36.81;21.03
70411;BME280;57832;46.038;11.398;2022-08-01T14:34:06;96534.56;;;37.15;21.43
70411;BME280;57832;46.038;11.398;2022-08-01T14:36:31;96527.56;;;36.97;22.14
70411;BME280;57832;46.038;11.398;2022-08-01T14:38:58;96537.75;;;36.24;23.12
70411;BME280;57832;46.038;11.398;2022-08-01T14:41:39;96545.25;;;36.93;21.92
70411;BME280;57832;46.038;11.398;2022-08-01T14:44:30;96539.56;;;35.94;23.53
70411;BME280;57832;46.038;11.398;2022-08-01T14:47:20;96540.13;;;35.61;23.59
70411;BME280;57832;46.038;11.398;2022-08-01T14:50:06;96542.31;;;35.70;23.80
70411;BME280;57832;46.038;11.398;2022-08-01T14:52:56;96533.03;;;36.08;23.38
70411;BME280;57832;46.038;11.398;2022-08-01T14:55:50;96535.63;;;36.35;24.27
70411;BME280;57832;46.038;11.398;2022-08-01T14:58:36;96540.53;;;36.93;22.62
70411;BME280;57832;46.038;11.398;2022-08-01T15:01:22;96537.06;;;36.93;22.52
70411;BME280;57832;46.038;11.398;2022-08-01T15:04:15;96529.22;;;35.61;24.08
70411;BME280;57832;46.038;11.398;2022-08-01T15:07:01;96529.84;;;35.69;24.52
70411;BME280;57832;46.038;11.398;2022-08-01T15:09:47;96533.53;;;35.39;25.78
70411;BME280;57832;46.038;11.398;2022-08-01T15:12:35;96536.72;;;35.97;25.28
70411;BME280;57832;46.038;11.398;2022-08-01T15:15:28;96536.81;;;36.34;25.10
70411;BME280;57832;46.038;11.398;2022-08-01T15:18:19;96534.00;;;35.97;25.96
70411;BME280;57832;46.038;11.398;2022-08-01T15:21:12;96532.91;;;36.15;25.65
70411;BME280;57832;46.038;11.398;2022-08-01T15:24:08;96530.72;;;35.86;26.30
70411;BME280;57832;46.038;11.398;2022-08-01T15:27:03;96522.78;;;35.28;27.17
70411;BME280;57832;46.038;11.398;2022-08-01T15:29:57;96524.88;;;34.69;27.90
70411;BME280;57832;46.038;11.398;2022-08-01T15:33:05;96529.53;;;34.96;27.91
70411;BME280;57832;46.038;11.398;2022-08-01T15:35:39;96531.09;;;35.44;27.73
70411;BME280;57832;46.038;11.398;2022-08-01T15:38:05;96533.06;;;34.96;28.90
70411;BME280;57832;46.038;11.398;2022-08-01T15:40:30;96534.31;;;34.88;28.87
70411;BME280;57832;46.038;11.398;2022-08-01T15:42:59;96534.47;;;35.05;28.07
70411;BME280;57832;46.038;11.398;2022-08-01T15:45:25;96523.34;;;35.19;27.46
70411;BME280;57832;46.038;11.398;2022-08-01T15:47:51;96529.91;;;34.71;29.02
70411;BME280;57832;46.038;11.398;2022-08-01T15:50:17;96530.84;;;34.60;28.66
70411;BME280;57832;46.038;11.398;2022-08-01T15:52:42;96536.34;;;34.57;28.85
70411;BME280;57832;46.038;11.398;2022-08-01T15:55:08;96532.81;;;34.87;28.21
70411;BME280;57832;46.038;11.398;2022-08-01T15:57:33;96532.03;;;34.28;29.36
70411;BME280;57832;46.038;11.398;2022-08-01T15:59:59;96535.41;;;34.94;28.94
70411;BME280;57832;46.038;11.398;2022-08-01T16:02:24;96531.91;;;34.66;29.44
70411;BME280;57832;46.038;11.398;2022-08-01T16:04:50;96531.88;;;34.70;28.71
70411;BME280;57832;46.038;11.398;2022-08-01T16:07:15;96534.94;;;34.45;29.93
70411;BME280;57832;46.038;11.398;2022-08-01T16:09:41;96526.56;;;34.59;29.22
70411;BME280;57832;46.038;11.398;2022-08-01T16:12:07;96529.13;;;34.70;29.45
70411;BME280;57832;46.038;11.398;2022-08-01T16:14:34;96525.16;;;35.02;28.77
70411;BME280;57832;46.038;11.398;2022-08-01T16:16:59;96526.09;;;34.92;28.27
70411;BME280;57832;46.038;11.398;2022-08-01T16:19:25;96523.94;;;34.83;28.93
70411;BME280;57832;46.038;11.398;2022-08-01T16:21:50;96523.22;;;34.75;29.15
70411;BME280;57832;46.038;11.398;2022-08-01T16:24:16;96524.00;;;35.03;28.92
70411;BME280;57832;46.038;11.398;2022-08-01T16:26:42;96516.59;;;35.04;29.25
70411;BME280;57832;46.038;11.398;2022-08-01T16:29:07;96517.31;;;34.80;30.10
70411;BME280;57832;46.038;11.398;2022-08-01T16:31:33;96518.13;;;34.77;30.39
70411;BME280;57832;46.038;11.398;2022-08-01T16:33:58;96521.47;;;34.61;30.36
70411;BME280;57832;46.038;11.398;2022-08-01T16:36:24;96530.84;;;34.88;29.33
70411;BME280;57832;46.038;11.398;2022-08-01T16:38:50;96524.09;;;35.20;29.25
70411;BME280;57832;46.038;11.398;2022-08-01T16:41:15;96514.69;;;35.01;29.32
70411;BME280;57832;46.038;11.398;2022-08-01T16:43:41;96526.41;;;34.97;29.04
70411;BME280;57832;46.038;11.398;2022-08-01T16:46:06;96531.59;;;34.61;29.39
70411;BME280;57832;46.038;11.398;2022-08-01T16:48:32;96521.38;;;35.20;28.77
70411;BME280;57832;46.038;11.398;2022-08-01T16:50:58;96533.63;;;34.84;29.31
70411;BME280;57832;46.038;11.398;2022-08-01T16:53:23;96534.22;;;34.68;29.49
70411;BME280;57832;46.038;11.398;2022-08-01T16:55:49;96540.19;;;34.87;29.77
70411;BME280;57832;46.038;11.398;2022-08-01T16:58:17;96535.53;;;35.11;29.29
70411;BME280;57832;46.038;11.398;2022-08-01T17:00:43;96541.72;;;34.33;30.51
70411;BME280;57832;46.038;11.398;2022-08-01T17:03:10;96539.88;;;33.88;32.24
70411;BME280;57832;46.038;11.398;2022-08-01T17:05:36;96535.59;;;33.91;32.13
70411;BME280;57832;46.038;11.398;2022-08-01T17:08:02;96546.38;;;33.60;31.56
70411;BME280;57832;46.038;11.398;2022-08-01T17:10:28;96550.16;;;33.31;32.61
70411;BME280;57832;46.038;11.398;2022-08-01T17:12:53;96551.63;;;34.16;31.56
70411;BME280;57832;46.038;11.398;2022-08-01T17:15:19;96555.19;;;34.09;31.52
70411;BME280;57832;46.038;11.398;2022-08-01T17:17:45;96553.44;;;33.95;31.80
70411;BME280;57832;46.038;11.398;2022-08-01T17:20:10;96552.75;;;33.46;32.97
70411;BME280;57832;46.038;11.398;2022-08-01T17:22:36;96555.13;;;32.91;33.25
70411;BME280;57832;46.038;11.398;2022-08-01T17:25:02;96560.13;;;33.87;31.74
70411;BME280;57832;46.038;11.398;2022-08-01T17:27:27;96554.56;;;33.56;32.16
70411;BME280;57832;46.038;11.398;2022-08-01T17:29:53;96558.66;;;33.37;33.82
70411;BME280;57832;46.038;11.398;2022-08-01T17:32:18;96558.66;;;33.33;36.47
70411;BME280;57832;46.038;11.398;2022-08-01T17:34:44;96560.81;;;33.53;35.24
70411;BME280;57832;46.038;11.398;2022-08-01T17:37:10;96562.66;;;33.18;35.21
70411;BME280;57832;46.038;11.398;2022-08-01T17:39:35;96558.34;;;32.75;37.47
70411;BME280;57832;46.038;11.398;2022-08-01T17:42:01;96570.34;;;32.71;38.19
70411;BME280;57832;46.038;11.398;2022-08-01T17:44:26;96570.00;;;32.61;34.79
70411;BME280;57832;46.038;11.398;2022-08-01T17:46:52;96569.59;;;32.70;37.14
70411;BME280;57832;46.038;11.398;2022-08-01T17:49:18;96574.69;;;32.57;37.59
70411;BME280;57832;46.038;11.398;2022-08-01T17:51:44;96584.91;;;32.24;38.63
70411;BME280;57832;46.038;11.398;2022-08-01T17:54:11;96588.50;;;31.81;41.51
70411;BME280;57832;46.038;11.398;2022-08-01T17:56:36;96580.41;;;31.56;43.79
70411;BME280;57832;46.038;11.398;2022-08-01T17:59:02;96588.53;;;31.31;40.85
70411;BME280;57832;46.038;11.398;2022-08-01T18:01:28;96597.06;;;31.37;40.41
70411;BME280;57832;46.038;11.398;2022-08-01T18:03:54;96595.09;;;31.88;39.08
70411;BME280;57832;46.038;11.398;2022-08-01T18:06:20;96597.00;;;31.91;39.93
70411;BME280;57832;46.038;11.398;2022-08-01T18:08:48;96591.22;;;30.98;44.20
70411;BME280;57832;46.038;11.398;2022-08-01T18:11:15;96598.16;;;30.78;46.68
70411;BME280;57832;46.038;11.398;2022-08-01T18:13:40;96600.44;;;30.58;44.20
70411;BME280;57832;46.038;11.398;2022-08-01T18:16:06;96597.47;;;31.10;41.49
70411;BME280;57832;46.038;11.398;2022-08-01T18:18:33;96597.44;;;31.49;39.82
70411;BME280;57832;46.038;11.398;2022-08-01T18:20:59;96600.53;;;31.05;40.42
70411;BME280;57832;46.038;11.398;2022-08-01T18:23:25;96607.16;;;31.32;39.08
70411;BME280;57832;46.038;11.398;2022-08-01T18:25:50;96601.72;;;31.65;38.34
70411;BME280;57832;46.038;11.398;2022-08-01T18:28:16;96610.78;;;30.45;41.39
70411;BME280;57832;46.038;11.398;2022-08-01T18:30:44;96607.81;;;30.72;40.99
70411;BME280;57832;46.038;11.398;2022-08-01T18:33:10;96611.00;;;31.39;38.86
70411;BME280;57832;46.038;11.398;2022-08-01T18:35:35;96618.97;;;30.56;41.51
70411;BME280;57832;46.038;11.398;2022-08-01T18:38:01;96620.28;;;30.06;43.53
70411;BME280;57832;46.038;11.398;2022-08-01T18:40:26;96620.34;;;30.21;43.01
70411;BME280;57832;46.038;11.398;2022-08-01T18:42:52;96616.19;;;30.41;40.97
70411;BME280;57832;46.038;11.398;2022-08-01T18:45:19;96617.44;;;30.58;41.05
70411;BME280;57832;46.038;11.398;2022-08-01T18:47:44;96614.03;;;31.01;40.32
70411;BME280;57832;46.038;11.398;2022-08-01T18:50:11;96624.31;;;30.45;41.71
70411;BME280;57832;46.038;11.398;2022-08-01T18:52:36;96626.22;;;30.41;40.91
70411;BME280;57832;46.038;11.398;2022-08-01T18:55:02;96630.94;;;30.47;41.21
70411;BME280;57832;46.038;11.398;2022-08-01T18:57:28;96643.75;;;29.91;42.24
70411;BME280;57832;46.038;11.398;2022-08-01T18:59:53;96640.72;;;30.95;40.00
70411;BME280;57832;46.038;11.398;2022-08-01T19:02:19;96650.06;;;30.17;42.41
70411;BME280;57832;46.038;11.398;2022-08-01T19:04:45;96648.72;;;30.56;43.14
70411;BME280;57832;46.038;11.398;2022-08-01T19:07:10;96651.88;;;29.46;47.01
70411;BME280;57832;46.038;11.398;2022-08-01T19:09:36;96659.88;;;29.80;48.07
70411;BME280;57832;46.038;11.398;2022-08-01T19:12:01;96663.16;;;28.77;55.12
70411;BME280;57832;46.038;11.398;2022-08-01T19:14:28;96674.53;;;29.34;49.50
70411;BME280;57832;46.038;11.398;2022-08-01T19:16:54;96678.16;;;28.74;46.65
70411;BME280;57832;46.038;11.398;2022-08-01T19:19:21;96686.56;;;29.41;46.03
70411;BME280;57832;46.038;11.398;2022-08-01T19:21:46;96693.75;;;29.71;45.42
70411;BME280;57832;46.038;11.398;2022-08-01T19:24:12;96691.06;;;29.26;47.02
70411;BME280;57832;46.038;11.398;2022-08-01T19:26:52;96697.78;;;28.71;52.24
70411;BME280;57832;46.038;11.398;2022-08-01T19:32:03;96710.22;;;29.17;55.46
70411;BME280;57832;46.038;11.398;2022-08-01T19:34:57;96704.69;;;29.40;56.36
70411;BME280;57832;46.038;11.398;2022-08-01T19:37:48;96721.94;;;27.83;59.92
70411;BME280;57832;46.038;11.398;2022-08-01T19:40:40;96725.63;;;27.98;56.04
70411;BME280;57832;46.038;11.398;2022-08-01T19:43:34;96741.63;;;28.11;58.05
70411;BME280;57832;46.038;11.398;2022-08-01T19:46:23;96757.00;;;27.87;56.30
70411;BME280;57832;46.038;11.398;2022-08-01T19:49:14;96752.78;;;28.93;53.09